createdAt,value
2023-04-21T00:01:32.905Z,4.40
2023-04-21T00:04:00.336Z,4.40
2023-04-21T00:06:28.520Z,4.40
2023-04-21T00:08:55.355Z,4.40
2023-04-21T00:11:22.595Z,4.40
2023-04-21T00:13:49.348Z,4.40
2023-04-21T00:16:16.151Z,4.40
2023-04-21T00:18:43.327Z,4.40
2023-04-21T00:21:10.271Z,4.40
2023-04-21T00:23:37.035Z,4.40
2023-04-21T00:26:03.968Z,4.40
2023-04-21T00:28:30.835Z,4.40
2023-04-21T00:30:57.640Z,4.40
2023-04-21T00:33:24.496Z,4.40
2023-04-21T00:35:51.348Z,4.40
2023-04-21T00:38:18.070Z,4.40
2023-04-21T00:40:44.803Z,4.40
2023-04-21T00:43:11.600Z,4.40
2023-04-21T00:45:38.442Z,4.40
2023-04-21T00:48:05.584Z,4.40
2023-04-21T00:50:33.362Z,4.40
2023-04-21T00:53:00.761Z,4.40
2023-04-21T00:55:27.620Z,4.40
2023-04-21T00:57:56.364Z,4.30
2023-04-21T01:00:23.475Z,4.30
2023-04-21T01:02:50.697Z,4.40
2023-04-21T01:05:18.270Z,4.40
2023-04-21T01:07:45.415Z,4.40
2023-04-21T01:10:12.385Z,4.40
2023-04-21T01:12:48.386Z,4.40
2023-04-21T01:15:17.392Z,4.40
2023-04-21T01:17:45.221Z,4.40
2023-04-21T01:20:14.166Z,4.40
2023-04-21T01:22:42.824Z,4.40
2023-04-21T01:25:10.347Z,4.40
2023-04-21T01:27:37.337Z,4.40
2023-04-21T01:30:05.474Z,4.40
2023-04-21T01:32:32.358Z,4.40
2023-04-21T01:35:00.340Z,4.40
2023-04-21T01:37:32.277Z,4.40
2023-04-21T01:40:01.265Z,4.40
2023-04-21T01:42:29.535Z,4.40
2023-04-21T01:44:56.910Z,4.30
2023-04-21T01:47:24.471Z,4.40
2023-04-21T01:49:51.683Z,4.40
2023-04-21T01:52:18.592Z,4.40
2023-04-21T01:54:45.542Z,4.40
2023-04-21T01:57:12.367Z,4.40
2023-04-21T01:59:39.191Z,4.40
2023-04-21T02:02:06.230Z,4.40
2023-04-21T02:04:33.444Z,4.40
2023-04-21T02:07:00.211Z,4.30
2023-04-21T02:09:27.027Z,4.40
2023-04-21T02:11:57.188Z,4.30
2023-04-21T02:14:25.673Z,4.30
2023-04-21T02:16:52.904Z,4.40
2023-04-21T02:19:20.400Z,4.30
2023-04-21T02:21:47.453Z,4.30
2023-04-21T02:24:14.181Z,4.30
2023-04-21T02:26:41.128Z,4.30
2023-04-21T02:29:07.905Z,4.30
2023-04-21T02:31:40.459Z,4.30
2023-04-21T02:34:13.261Z,4.30
2023-04-21T02:36:40.040Z,4.20
2023-04-21T02:39:07.070Z,4.30
2023-04-21T02:41:34.428Z,4.20
2023-04-21T02:44:01.128Z,4.30
2023-04-21T02:46:27.924Z,4.30
2023-04-21T02:48:54.674Z,4.30
2023-04-21T02:51:21.385Z,4.20
2023-04-21T02:53:48.141Z,4.20
2023-04-21T02:56:14.941Z,4.20
2023-04-21T02:58:41.748Z,4.20
2023-04-21T03:01:08.520Z,4.20
2023-04-21T03:03:36.198Z,4.20
2023-04-21T03:06:04.782Z,4.20
2023-04-21T03:08:32.642Z,4.10
2023-04-21T03:11:00.480Z,4.10
2023-04-21T03:13:27.297Z,4.10
2023-04-21T03:15:54.083Z,4.10
2023-04-21T03:18:20.816Z,4.10
2023-04-21T03:20:47.567Z,4.10
2023-04-21T03:23:14.274Z,4.10
2023-04-21T03:25:41.151Z,4.10
2023-04-21T03:28:07.889Z,4.10
2023-04-21T03:30:34.714Z,4.10
2023-04-21T03:33:01.596Z,4.00
2023-04-21T03:35:28.432Z,4.00
2023-04-21T03:37:55.225Z,4.00
2023-04-21T03:40:22.114Z,3.90
2023-04-21T03:42:48.893Z,3.90
2023-04-21T03:45:15.745Z,3.90
2023-04-21T03:47:42.559Z,4.00
2023-04-21T03:50:09.541Z,4.00
2023-04-21T03:52:36.356Z,3.90
2023-04-21T03:55:03.057Z,4.00
2023-04-21T03:57:29.836Z,4.00
2023-04-21T03:59:56.568Z,4.00
2023-04-21T04:02:23.620Z,4.00
2023-04-21T04:04:50.628Z,4.00
2023-04-21T04:07:17.735Z,3.90
2023-04-21T04:09:44.733Z,3.90
2023-04-21T04:12:11.927Z,3.90
2023-04-21T04:14:39.541Z,3.90
2023-04-21T04:17:06.550Z,3.90
2023-04-21T04:19:33.519Z,3.90
2023-04-21T04:22:01.453Z,3.90
2023-04-21T04:24:28.444Z,3.90
2023-04-21T04:26:55.456Z,3.90
2023-04-21T04:29:22.653Z,3.80
2023-04-21T04:31:50.608Z,3.80
2023-04-21T04:34:17.937Z,3.80
2023-04-21T04:36:45.696Z,3.80
2023-04-21T04:39:12.480Z,3.80
2023-04-21T04:41:39.357Z,3.80
2023-04-21T04:44:06.351Z,3.80
2023-04-21T04:46:33.496Z,3.80
2023-04-21T04:49:03.586Z,3.70
2023-04-21T04:51:30.415Z,3.70
2023-04-21T04:53:57.097Z,3.60
2023-04-21T04:56:23.818Z,3.60
2023-04-21T04:58:50.820Z,3.60
2023-04-21T05:01:18.020Z,3.60
2023-04-21T05:03:45.931Z,3.70
2023-04-21T05:06:14.033Z,3.70
2023-04-21T05:08:41.520Z,3.70
2023-04-21T05:11:08.501Z,3.70
2023-04-21T05:13:36.854Z,3.60
2023-04-21T05:16:05.585Z,3.60
2023-04-21T05:18:32.342Z,3.60
2023-04-21T05:20:59.113Z,3.70
2023-04-21T05:23:25.863Z,3.70
2023-04-21T05:25:52.571Z,3.80
2023-04-21T05:28:19.403Z,3.80
2023-04-21T05:30:46.236Z,3.90
2023-04-21T05:33:13.093Z,4.00
2023-04-21T05:35:40.413Z,4.10
2023-04-21T05:38:07.252Z,4.00
2023-04-21T05:40:34.090Z,4.00
2023-04-21T05:43:00.824Z,4.10
2023-04-21T05:45:27.632Z,4.20
2023-04-21T05:47:54.460Z,4.30
2023-04-21T05:50:21.361Z,4.50
2023-04-21T05:52:48.193Z,4.40
2023-04-21T05:55:15.022Z,4.50
2023-04-21T05:57:41.793Z,4.30
2023-04-21T06:00:09.283Z,4.30
2023-04-21T06:02:36.122Z,4.40
2023-04-21T06:05:03.380Z,4.50
2023-04-21T06:07:30.238Z,4.50
2023-04-21T06:09:58.064Z,4.50
2023-04-21T06:12:24.962Z,4.60
2023-04-21T06:14:51.783Z,4.70
2023-04-21T06:17:19.144Z,4.70
2023-04-21T06:19:46.058Z,4.90
2023-04-21T06:22:12.899Z,4.90
2023-04-21T06:24:39.727Z,4.80
2023-04-21T06:27:12.445Z,4.60
2023-04-21T06:29:39.562Z,4.70
2023-04-21T06:32:06.419Z,4.60
2023-04-21T06:34:33.277Z,4.60
2023-04-21T06:37:00.015Z,4.60
2023-04-21T06:39:27.285Z,4.80
2023-04-21T06:41:54.125Z,4.90
2023-04-21T06:44:21.156Z,4.80
2023-04-21T06:46:48.076Z,4.80
2023-04-21T06:49:14.792Z,4.90
2023-04-21T06:51:41.597Z,5.10
2023-04-21T06:54:08.317Z,5.20
2023-04-21T06:56:35.145Z,5.30
2023-04-21T06:59:01.847Z,5.40
2023-04-21T07:01:28.719Z,5.40
2023-04-21T07:03:55.781Z,5.50
2023-04-21T07:06:22.603Z,5.80
2023-04-21T07:08:49.621Z,5.90
2023-04-21T07:11:16.295Z,6.00
2023-04-21T07:13:43.036Z,5.80
2023-04-21T07:16:09.892Z,5.80
2023-04-21T07:18:36.774Z,5.90
2023-04-21T07:21:03.569Z,5.90
2023-04-21T07:23:30.254Z,5.80
2023-04-21T07:25:57.011Z,5.70
2023-04-21T07:28:23.729Z,5.80
2023-04-21T07:30:50.639Z,5.90
2023-04-21T07:33:17.452Z,6.00
2023-04-21T07:35:44.250Z,6.00
2023-04-21T07:38:11.099Z,6.20
2023-04-21T07:40:38.266Z,6.40
2023-04-21T07:43:05.026Z,6.50
2023-04-21T07:45:31.814Z,6.70
2023-04-21T07:47:59.259Z,6.90
2023-04-21T07:50:26.195Z,7.00
2023-04-21T07:52:52.931Z,7.20
2023-04-21T07:55:19.703Z,7.20
2023-04-21T07:57:46.513Z,7.40
2023-04-21T08:00:13.944Z,7.80
2023-04-21T08:02:41.003Z,7.90
2023-04-21T08:05:08.358Z,8.00
2023-04-21T08:07:35.362Z,8.00
2023-04-21T08:10:02.847Z,8.20
2023-04-21T08:12:29.830Z,8.40
2023-04-21T08:14:56.596Z,8.50
2023-04-21T08:17:23.430Z,8.70
2023-04-21T08:19:50.229Z,8.70
2023-04-21T08:22:20.251Z,8.70
2023-04-21T08:24:47.053Z,8.80
2023-04-21T08:27:13.790Z,9.10
2023-04-21T08:29:40.462Z,9.30
2023-04-21T08:32:07.521Z,9.40
2023-04-21T08:34:34.807Z,9.60
2023-04-21T08:37:01.621Z,9.60
2023-04-21T08:39:28.731Z,9.70
2023-04-21T08:41:56.466Z,9.70
2023-04-21T08:44:23.339Z,9.80
2023-04-21T08:46:53.068Z,10.00
2023-04-21T08:49:21.283Z,10.10
2023-04-21T08:51:48.433Z,10.40
2023-04-21T08:54:15.711Z,10.50
2023-04-21T08:56:42.537Z,10.70
2023-04-21T08:59:09.318Z,10.90
2023-04-21T09:02:18.052Z,11.20
2023-04-21T09:04:47.449Z,12.10
2023-04-21T09:07:32.229Z,12.50
2023-04-21T09:10:00.499Z,12.90
2023-04-21T09:12:27.842Z,12.70
2023-04-21T09:14:54.863Z,11.90
2023-04-21T09:17:28.369Z,11.60
2023-04-21T09:19:55.110Z,11.90
2023-04-21T09:22:29.201Z,11.60
2023-04-21T09:25:02.398Z,11.50
2023-04-21T09:27:29.197Z,11.40
2023-04-21T09:30:01.976Z,11.90
2023-04-21T09:32:28.748Z,12.20
2023-04-21T09:35:00.468Z,13.10
2023-04-21T09:37:31.862Z,13.20
2023-04-21T09:42:37.117Z,13.10
2023-04-21T09:47:41.777Z,13.30
2023-04-21T09:50:12.793Z,12.80
2023-04-21T09:52:40.760Z,13.10
2023-04-21T09:55:12.732Z,13.10
2023-04-21T09:57:42.094Z,12.90
2023-04-21T10:00:12.061Z,13.40
2023-04-21T10:02:50.071Z,13.80
2023-04-21T10:05:17.308Z,13.50
2023-04-21T10:07:45.725Z,14.10
2023-04-21T10:10:26.305Z,14.40
2023-04-21T10:12:53.809Z,15.30
2023-04-21T10:15:33.523Z,15.50
2023-04-21T10:18:13.402Z,15.80
2023-04-21T10:20:53.752Z,16.10
2023-04-21T10:23:30.955Z,17.10
2023-04-21T10:26:12.412Z,17.30
2023-04-21T10:28:43.458Z,16.50
2023-04-21T10:31:23.663Z,15.40
2023-04-21T10:34:08.479Z,15.80
2023-04-21T10:36:56.515Z,15.20
2023-04-21T10:39:37.757Z,15.60
2023-04-21T10:42:13.851Z,15.80
2023-04-21T10:44:44.416Z,16.40
2023-04-21T10:47:11.524Z,16.60
2023-04-21T10:49:39.609Z,16.50
2023-04-21T10:52:09.295Z,17.10
2023-04-21T10:54:42.334Z,17.40
2023-04-21T10:57:11.580Z,17.00
2023-04-21T10:59:39.033Z,16.90
2023-04-21T11:02:12.406Z,17.30
2023-04-21T11:04:45.021Z,17.40
2023-04-21T11:07:19.602Z,17.70
2023-04-21T11:09:48.243Z,17.30
2023-04-21T11:12:18.688Z,17.50
2023-04-21T11:14:48.175Z,17.90
2023-04-21T11:17:20.844Z,17.80
2023-04-21T11:19:53.916Z,16.80
2023-04-21T11:22:26.432Z,17.20
2023-04-21T11:24:57.895Z,17.50
2023-04-21T11:27:27.873Z,17.80
2023-04-21T11:29:54.775Z,18.10
2023-04-21T11:32:21.824Z,17.90
2023-04-21T11:34:50.610Z,18.00
2023-04-21T11:37:25.907Z,18.00
2023-04-21T11:40:00.408Z,17.90
2023-04-21T11:42:27.705Z,17.40
2023-04-21T11:44:58.808Z,18.20
2023-04-21T11:47:28.874Z,18.40
2023-04-21T11:49:57.594Z,18.50
2023-04-21T11:52:29.590Z,18.90
2023-04-21T11:55:00.982Z,19.50
2023-04-21T11:57:28.855Z,19.50
2023-04-21T11:59:59.139Z,19.70
2023-04-21T12:02:28.420Z,18.50
2023-04-21T12:05:04.390Z,18.20
2023-04-21T12:07:45.071Z,18.90
2023-04-21T12:10:21.957Z,19.80
2023-04-21T12:12:49.272Z,19.10
2023-04-21T12:15:22.790Z,19.00
2023-04-21T12:17:55.243Z,19.60
2023-04-21T12:20:28.347Z,18.90
2023-04-21T12:22:56.478Z,18.40
2023-04-21T12:25:24.657Z,18.00
2023-04-21T12:27:58.748Z,18.40
2023-04-21T12:30:25.803Z,18.60
2023-04-21T12:32:54.337Z,19.30
2023-04-21T12:35:22.415Z,19.30
2023-04-21T12:37:49.176Z,18.40
2023-04-21T12:40:16.151Z,18.40
2023-04-21T12:42:42.882Z,19.00
2023-04-21T12:45:09.985Z,18.50
2023-04-21T12:47:37.515Z,18.20
2023-04-21T12:50:05.325Z,18.20
2023-04-21T12:52:32.124Z,18.40
2023-04-21T12:54:58.833Z,18.20
2023-04-21T12:57:25.755Z,18.20
2023-04-21T12:59:52.545Z,18.10
2023-04-21T13:02:19.362Z,18.40
2023-04-21T13:04:46.309Z,18.60
2023-04-21T13:07:13.915Z,18.70
2023-04-21T13:09:40.743Z,18.50
2023-04-21T13:12:07.596Z,18.80
2023-04-21T13:14:34.348Z,19.10
2023-04-21T13:17:01.251Z,19.60
2023-04-21T13:19:29.598Z,19.20
2023-04-21T13:21:56.701Z,18.80
2023-04-21T13:24:23.585Z,19.40
2023-04-21T13:26:50.477Z,19.00
2023-04-21T13:29:17.577Z,19.20
2023-04-21T13:31:44.380Z,19.90
2023-04-21T13:34:11.313Z,20.10
2023-04-21T13:36:38.337Z,19.70
2023-04-21T13:39:05.788Z,19.10
2023-04-21T13:41:32.748Z,19.40
2023-04-21T13:43:59.633Z,19.10
2023-04-21T13:46:26.841Z,19.30
2023-04-21T13:48:54.375Z,19.30
2023-04-21T13:51:21.180Z,19.70
2023-04-21T13:53:48.660Z,19.40
2023-04-21T13:56:16.132Z,20.00
2023-04-21T13:58:43.174Z,19.80
2023-04-21T14:01:09.962Z,19.60
2023-04-21T14:03:37.022Z,19.80
2023-04-21T14:06:04.864Z,19.40
2023-04-21T14:08:31.657Z,19.50
2023-04-21T14:10:58.515Z,19.40
2023-04-21T14:13:36.434Z,18.90
2023-04-21T14:16:07.791Z,19.00
2023-04-21T14:18:34.783Z,18.80
2023-04-21T14:21:01.687Z,18.60
2023-04-21T14:23:28.502Z,18.20
2023-04-21T14:25:55.450Z,18.60
2023-04-21T14:28:22.477Z,18.60
2023-04-21T14:30:49.295Z,18.80
2023-04-21T14:33:16.327Z,18.50
2023-04-21T14:35:43.112Z,18.30
2023-04-21T14:38:09.824Z,18.10
2023-04-21T14:40:36.563Z,18.60
2023-04-21T14:43:03.445Z,18.50
2023-04-21T14:45:30.409Z,18.60
2023-04-21T14:47:57.371Z,18.50
2023-04-21T14:50:24.122Z,18.60
2023-04-21T14:52:50.879Z,18.60
2023-04-21T14:55:19.132Z,18.50
2023-04-21T14:57:47.000Z,18.10
2023-04-21T15:00:14.189Z,17.60
2023-04-21T15:02:41.387Z,17.60
2023-04-21T15:05:08.957Z,17.70
2023-04-21T15:07:36.162Z,17.90
2023-04-21T15:10:03.070Z,17.90
2023-04-21T15:12:30.007Z,17.80
2023-04-21T15:14:56.776Z,17.80
2023-04-21T15:17:23.697Z,17.70
2023-04-21T15:19:50.730Z,17.60
2023-04-21T15:22:17.602Z,17.50
2023-04-21T15:24:44.454Z,17.50
2023-04-21T15:27:11.284Z,17.40
2023-04-21T15:29:38.280Z,17.30
2023-04-21T15:32:05.185Z,17.30
2023-04-21T15:34:32.043Z,17.10
2023-04-21T15:36:58.760Z,17.10
2023-04-21T15:39:25.514Z,17.10
2023-04-21T15:41:53.299Z,17.00
2023-04-21T15:44:20.033Z,16.90
2023-04-21T15:46:47.035Z,16.80
2023-04-21T15:49:13.941Z,16.90
2023-04-21T15:51:41.429Z,16.90
2023-04-21T15:54:09.037Z,16.80
2023-04-21T15:56:35.891Z,16.70
2023-04-21T15:59:03.799Z,16.60
2023-04-21T16:01:30.666Z,16.50
2023-04-21T16:03:57.521Z,16.50
2023-04-21T16:06:25.293Z,16.40
2023-04-21T16:08:52.211Z,16.40
2023-04-21T16:11:19.572Z,16.40
2023-04-21T16:13:46.325Z,16.50
2023-04-21T16:16:13.112Z,16.40
2023-04-21T16:18:39.947Z,16.40
2023-04-21T16:21:06.892Z,16.50
2023-04-21T16:23:33.711Z,16.40
2023-04-21T16:26:01.960Z,16.30
2023-04-21T16:28:28.806Z,16.30
2023-04-21T16:30:55.636Z,16.30
2023-04-21T16:33:22.450Z,16.30
2023-04-21T16:35:52.116Z,16.30
2023-04-21T16:38:19.046Z,16.30
2023-04-21T16:40:45.919Z,16.30
2023-04-21T16:43:12.677Z,16.20
2023-04-21T16:45:39.518Z,16.20
2023-04-21T16:48:06.643Z,16.10
2023-04-21T16:50:33.789Z,16.00
2023-04-21T16:53:00.608Z,16.10
2023-04-21T16:55:28.194Z,16.00
2023-04-21T16:57:54.976Z,15.90
2023-04-21T17:00:21.809Z,16.00
2023-04-21T17:02:48.715Z,15.80
2023-04-21T17:05:16.458Z,15.90
2023-04-21T17:07:44.617Z,15.80
2023-04-21T17:10:11.463Z,15.80
2023-04-21T17:12:39.050Z,15.60
2023-04-21T17:15:07.406Z,15.50
2023-04-21T17:17:42.869Z,15.50
2023-04-21T17:20:13.541Z,15.30
2023-04-21T17:22:41.721Z,15.30
2023-04-21T17:25:09.519Z,15.40
2023-04-21T17:27:37.686Z,15.20
2023-04-21T17:30:05.530Z,15.00
2023-04-21T17:32:34.040Z,14.90
2023-04-21T17:35:01.532Z,14.60
2023-04-21T17:37:29.510Z,14.50
2023-04-21T17:39:56.385Z,14.40
2023-04-21T17:42:23.257Z,14.30
2023-04-21T17:44:50.127Z,14.20
2023-04-21T17:47:16.913Z,14.10
2023-04-21T17:49:43.643Z,14.00
2023-04-21T17:52:10.388Z,13.80
2023-04-21T17:54:37.611Z,13.80
2023-04-21T17:57:04.611Z,13.50
2023-04-21T17:59:31.351Z,13.40
2023-04-21T18:01:59.108Z,13.30
2023-04-21T18:04:27.373Z,13.10
2023-04-21T18:06:54.322Z,12.90
2023-04-21T18:09:21.268Z,12.80
2023-04-21T18:11:48.007Z,12.60
2023-04-21T18:14:15.160Z,12.60
2023-04-21T18:16:41.947Z,12.50
2023-04-21T18:19:08.808Z,12.40
2023-04-21T18:21:35.703Z,12.40
2023-04-21T18:24:02.672Z,12.40
2023-04-21T18:26:29.438Z,12.40
2023-04-21T18:28:58.366Z,12.40
2023-04-21T18:31:26.308Z,12.30
2023-04-21T18:33:53.383Z,12.30
2023-04-21T18:36:20.207Z,12.50
2023-04-21T18:38:47.258Z,12.50
2023-04-21T18:41:14.017Z,12.40
2023-04-21T18:43:40.808Z,12.30
2023-04-21T18:46:07.689Z,12.20
2023-04-21T18:48:34.549Z,12.20
2023-04-21T18:51:01.334Z,12.20
2023-04-21T18:53:28.125Z,12.20
2023-04-21T18:55:54.843Z,12.10
2023-04-21T18:58:21.659Z,12.00
2023-04-21T19:00:48.438Z,11.90
2023-04-21T19:03:15.422Z,11.80
2023-04-21T19:05:42.369Z,11.60
2023-04-21T19:08:09.829Z,11.50
2023-04-21T19:10:37.931Z,11.40
2023-04-21T19:13:05.048Z,11.40
2023-04-21T19:15:32.138Z,11.30
2023-04-21T19:17:58.987Z,11.20
2023-04-21T19:20:25.883Z,11.10
2023-04-21T19:22:52.628Z,10.90
2023-04-21T19:25:19.452Z,10.80
2023-04-21T19:27:46.496Z,10.80
2023-04-21T19:30:13.727Z,10.70
2023-04-21T19:32:40.731Z,10.60
2023-04-21T19:35:08.145Z,10.50
2023-04-21T19:37:36.091Z,10.50
2023-04-21T19:40:03.953Z,10.40
2023-04-21T19:42:31.211Z,10.30
2023-04-21T19:44:58.028Z,10.30
2023-04-21T19:47:24.851Z,10.20
2023-04-21T19:49:51.579Z,10.10
2023-04-21T19:52:18.547Z,10.10
2023-04-21T19:54:45.347Z,10.00
2023-04-21T19:57:12.418Z,9.90
2023-04-21T19:59:39.511Z,9.90
2023-04-21T20:02:07.145Z,9.80
2023-04-21T20:04:34.847Z,9.90
2023-04-21T20:07:01.790Z,9.80
2023-04-21T20:09:28.682Z,9.70
2023-04-21T20:11:55.550Z,9.70
2023-04-21T20:14:22.240Z,9.70
2023-04-21T20:16:49.081Z,9.60
2023-04-21T20:19:17.185Z,9.60
2023-04-21T20:21:44.252Z,9.60
2023-04-21T20:24:11.057Z,9.60
2023-04-21T20:26:37.836Z,9.50
2023-04-21T20:29:04.658Z,9.50
2023-04-21T20:31:31.768Z,9.40
2023-04-21T20:33:58.636Z,9.40
2023-04-21T20:36:27.448Z,9.30
2023-04-21T20:38:57.106Z,9.30
2023-04-21T20:41:24.183Z,9.30
2023-04-21T20:43:50.957Z,9.30
2023-04-21T20:46:18.557Z,9.30
2023-04-21T20:48:45.572Z,9.30
2023-04-21T20:51:13.452Z,9.30
2023-04-21T20:53:40.412Z,9.20
2023-04-21T20:56:07.552Z,9.20
2023-04-21T20:58:36.071Z,9.20
2023-04-21T21:01:03.049Z,9.10
2023-04-21T21:03:30.796Z,9.10
2023-04-21T21:05:57.824Z,9.20
2023-04-21T21:08:24.636Z,9.20
2023-04-21T21:10:51.337Z,9.20
2023-04-21T21:13:18.090Z,9.10
2023-04-21T21:15:44.910Z,9.10
2023-04-21T21:18:11.967Z,9.10
2023-04-21T21:20:38.817Z,9.10
2023-04-21T21:23:05.922Z,9.10
2023-04-21T21:25:32.722Z,9.00
2023-04-21T21:27:59.554Z,9.00
2023-04-21T21:30:26.324Z,9.00
2023-04-21T21:32:53.971Z,9.00
2023-04-21T21:35:21.123Z,8.90
2023-04-21T21:37:48.060Z,8.90
2023-04-21T21:40:14.984Z,8.80
2023-04-21T21:42:41.966Z,8.80
2023-04-21T21:45:11.008Z,8.80
2023-04-21T21:47:40.525Z,8.80
2023-04-21T21:50:08.770Z,8.70
2023-04-21T21:52:35.622Z,8.70
2023-04-21T21:55:02.474Z,8.70
2023-04-21T21:57:29.257Z,8.70
2023-04-21T21:59:56.095Z,8.60
2023-04-21T22:02:23.016Z,8.60
2023-04-21T22:04:49.835Z,8.60
2023-04-21T22:07:17.573Z,8.50
2023-04-21T22:09:44.320Z,8.50
2023-04-21T22:12:11.120Z,8.50
2023-04-21T22:14:37.840Z,8.40
2023-04-21T22:17:06.773Z,8.40
2023-04-21T22:19:34.028Z,8.40
2023-04-21T22:22:00.768Z,8.30
2023-04-21T22:24:27.557Z,8.30
2023-04-21T22:26:54.280Z,8.30
2023-04-21T22:29:21.140Z,8.30
2023-04-21T22:31:48.095Z,8.30
2023-04-21T22:34:19.682Z,8.20
2023-04-21T22:36:46.539Z,8.20
2023-04-21T22:39:13.365Z,8.20
2023-04-21T22:41:40.216Z,8.20
2023-04-21T22:44:07.023Z,8.10
2023-04-21T22:46:34.036Z,8.10
2023-04-21T22:49:05.157Z,8.10
2023-04-21T22:51:32.600Z,8.00
2023-04-21T22:54:00.427Z,8.00
2023-04-21T22:56:28.007Z,8.00
2023-04-21T22:58:54.771Z,7.90
2023-04-21T23:01:21.645Z,7.90
2023-04-21T23:03:48.793Z,7.80
2023-04-21T23:06:15.749Z,7.80
2023-04-21T23:08:42.500Z,7.80
2023-04-21T23:11:09.234Z,7.70
2023-04-21T23:13:36.058Z,7.70
2023-04-21T23:16:02.895Z,7.70
2023-04-21T23:18:29.757Z,7.60
2023-04-21T23:20:56.642Z,7.60
2023-04-21T23:23:23.363Z,7.60
2023-04-21T23:25:50.368Z,7.60
2023-04-21T23:28:17.155Z,7.60
2023-04-21T23:30:43.908Z,7.60
2023-04-21T23:33:10.767Z,7.60
2023-04-21T23:35:37.574Z,7.60
2023-04-21T23:38:04.343Z,7.50
2023-04-21T23:40:31.105Z,7.50
2023-04-21T23:42:57.981Z,7.40
2023-04-21T23:45:24.984Z,7.40
2023-04-21T23:47:51.767Z,7.40
2023-04-21T23:50:18.672Z,7.40
2023-04-21T23:52:45.463Z,7.40
2023-04-21T23:55:12.522Z,7.30
2023-04-21T23:57:39.341Z,7.30
